To NAV CANADA Home Page Login to a new session Search on AWWS site Feedback and Comments Disclaimer Vers la page française équivalente Tips FAQ What's new on the site To the Forecasts and Observations / NOTAM section To "File a Flight Plan" website Publications and other links Update of the User's profile FIC Telephone Numbers My Weather Data Folder Route Weather Data Regional Weather Data Local Weather Data To the Forecasts and Observations / NOTAM section
Request Generated 02/23/2017 at 20:46:17 UTC . Weather information available at that time is displayed.

METAR/TAF

WHITEHORSE/ERIK NIELSEN INTL/YT    

METAR CYXY 232000Z 00000KT 40SM FEW120 BKN240 M15/M19 A3034 RMK
AC2CI3 SLP349=
METAR CYXY 231900Z VRB02KT 40SM SCT130 BKN240 M17/M20 A3036 RMK
AC3CI4 SLP354=
METAR CYXY 231800Z VRB02KT 40SM SCT130 BKN240 M19/M22 A3035 RMK
AC4CI1 SLP353=

TAF CYXY 231738Z 2318/2406 VRB03KT P6SM FEW080 SCT140
BECMG 2320/2322 36010KT
FM240000 36010KT P6SM BKN040 TEMPO 2400/2406 6SM -SN
RMK NXT FCST BY 240000Z=
Your time UTC time
Weather data provided by Environment Canada and NAV CANADA